Time;durP1;ratioP1;P1;durP2;ratioP2;P2;SDS_P1;SDS_P2;PMS_P1;PMS_P2;Temp;Humidity;BMP_temperature;BMP_pressure;BME280_temperature;BME280_humidity;BME280_pressure;Samples;Min_cycle;Max_cycle;Signal;HPM_P1;HPM_P2
2021/07/18 00:01:17;;;;;;;11.38;10.00;;;;;;;21.10;83.84;96448.56;127889;1093;24957;-91
2021/07/18 00:03:48;;;;;;;16.65;10.75;;;;;;;21.10;83.76;96453.18;127849;1092;22799;-91
2021/07/18 00:06:20;;;;;;;15.65;10.33;;;;;;;21.10;83.86;96450.48;127916;1093;23077;-93
2021/07/18 00:08:51;;;;;;;12.08;9.88;;;;;;;21.06;83.65;96458.49;127901;1093;24446;-90
2021/07/18 00:11:22;;;;;;;15.85;10.95;;;;;;;21.03;84.43;96459.20;127799;1093;22802;-88
2021/07/18 00:13:53;;;;;;;14.05;11.60;;;;;;;21.07;84.39;96454.66;127841;1093;24858;-91
2021/07/18 00:16:25;;;;;;;15.53;12.05;;;;;;;21.11;84.35;96446.66;127911;1092;27740;-91
2021/07/18 00:18:56;;;;;;;15.95;12.63;;;;;;;21.09;84.85;96438.92;127822;1093;22795;-90
2021/07/18 00:21:27;;;;;;;13.35;11.88;;;;;;;21.05;85.25;96436.15;127862;1093;22796;-89
2021/07/18 00:23:59;;;;;;;13.63;12.23;;;;;;;21.06;85.10;96445.02;127421;1093;27543;-91
2021/07/18 00:26:30;;;;;;;16.55;11.43;;;;;;;21.07;84.71;96448.49;127840;1093;22819;-90
2021/07/18 00:29:01;;;;;;;13.43;11.05;;;;;;;21.04;84.80;96449.98;127849;1093;24135;-93
2021/07/18 00:31:33;;;;;;;14.33;11.48;;;;;;;21.03;85.25;96443.80;127858;1093;22827;-89
2021/07/18 00:34:04;;;;;;;13.28;11.35;;;;;;;21.08;85.03;96442.75;127830;1093;32659;-91
2021/07/18 00:36:36;;;;;;;13.45;10.75;;;;;;;21.14;85.09;96437.89;127891;1093;22949;-89
2021/07/18 00:39:07;;;;;;;15.13;11.05;;;;;;;21.18;85.06;96438.74;127479;1093;22839;-91
2021/07/18 00:41:39;;;;;;;13.30;10.20;;;;;;;21.14;84.77;96438.67;127635;1093;22820;-89
2021/07/18 00:44:11;;;;;;;12.88;10.20;;;;;;;21.12;84.74;96440.94;127842;1093;22789;-92
2021/07/18 00:46:42;;;;;;;12.40;10.45;;;;;;;21.12;84.47;96443.63;127720;1093;22784;-90
2021/07/18 00:49:14;;;;;;;11.98;10.23;;;;;;;21.13;84.85;96449.80;127730;1093;25942;-95
2021/07/18 00:51:45;;;;;;;13.88;10.25;;;;;;;21.10;85.46;96445.09;127851;1093;22822;-89
2021/07/18 00:54:17;;;;;;;14.65;10.98;;;;;;;21.03;85.51;96451.11;127834;1093;23277;-90
2021/07/18 00:56:49;;;;;;;12.95;10.93;;;;;;;21.04;85.93;96444.59;127918;1093;26296;-89
2021/07/18 00:59:20;;;;;;;14.68;10.00;;;;;;;21.08;85.68;96444.66;127786;1093;27271;-93
2021/07/18 01:01:52;;;;;;;13.18;9.50;;;;;;;21.10;86.10;96448.56;127826;1093;23564;-89
2021/07/18 01:04:24;;;;;;;12.17;9.20;;;;;;;21.12;86.05;96451.72;127830;1092;22791;-90
2021/07/18 01:06:56;;;;;;;11.83;9.50;;;;;;;21.14;86.03;96451.37;127530;1093;22845;-90
2021/07/18 01:09:27;;;;;;;10.48;8.50;;;;;;;21.13;86.08;96453.28;127850;1093;22810;-92
2021/07/18 01:11:59;;;;;;;9.78;7.83;;;;;;;21.11;85.77;96455.52;127863;1093;23551;-90
2021/07/18 01:14:31;;;;;;;11.20;8.05;;;;;;;21.10;85.27;96466.66;127825;1093;25411;-96
2021/07/18 01:17:02;;;;;;;10.95;8.28;;;;;;;21.01;85.41;96464.94;127912;1093;22799;-89
2021/07/18 01:19:35;;;;;;;10.93;9.00;;;;;;;20.97;85.63;96469.47;127847;1093;24420;-90
2021/07/18 01:22:07;;;;;;;11.40;8.57;;;;;;;20.94;85.61;96474.75;127838;1093;22799;-90
2021/07/18 01:24:39;;;;;;;9.78;8.35;;;;;;;20.87;85.57;96469.20;127885;1093;24482;-91
2021/07/18 01:27:10;;;;;;;11.10;8.68;;;;;;;20.83;85.76;96479.09;127843;1093;35398;-91
2021/07/18 01:29:42;;;;;;;10.55;7.73;;;;;;;20.76;86.07;96485.09;127826;1093;26625;-90
2021/07/18 01:32:13;;;;;;;9.38;7.68;;;;;;;20.66;85.84;96486.38;127855;1093;25360;-89
2021/07/18 01:34:45;;;;;;;9.00;7.33;;;;;;;20.63;85.96;96500.55;127843;1092;22807;-91
2021/07/18 01:37:16;;;;;;;9.25;7.63;;;;;;;20.62;86.07;96496.30;127906;1093;23150;-91
2021/07/18 01:39:48;;;;;;;11.05;7.43;;;;;;;20.60;86.03;96495.86;127890;1093;22799;-91
2021/07/18 01:42:20;;;;;;;9.75;8.35;;;;;;;20.60;86.57;96503.16;127882;1093;22835;-91
2021/07/18 01:44:52;;;;;;;10.93;8.88;;;;;;;20.62;87.31;96501.68;127837;1093;23286;-89
2021/07/18 01:47:23;;;;;;;10.48;8.18;;;;;;;20.62;87.18;96498.20;127851;1093;22775;-89
2021/07/18 01:49:55;;;;;;;11.05;8.53;;;;;;;20.63;86.86;96495.16;127834;1093;22826;-90
2021/07/18 01:52:26;;;;;;;10.15;7.53;;;;;;;20.66;86.63;96493.69;127837;1093;22837;-90
2021/07/18 01:54:58;;;;;;;9.28;7.85;;;;;;;20.64;86.20;96485.95;127833;1093;23572;-94
2021/07/18 01:57:29;;;;;;;11.40;8.20;;;;;;;20.64;85.91;96487.86;127853;1093;23554;-91
2021/07/18 02:00:01;;;;;;;8.48;7.00;;;;;;;20.66;85.60;96481.00;127900;1093;22794;-94
2021/07/18 02:02:33;;;;;;;9.70;7.83;;;;;;;20.70;84.98;96479.20;127837;1093;22816;-91
2021/07/18 02:05:05;;;;;;;7.93;7.13;;;;;;;20.74;84.13;96477.36;127782;1093;23911;-92
2021/07/18 02:07:36;;;;;;;10.35;8.18;;;;;;;20.75;82.74;96462.77;127853;1093;23318;-90
2021/07/18 02:10:10;;;;;;;9.10;6.87;;;;;;;20.78;82.05;96463.98;127856;1093;22822;-92
2021/07/18 02:12:42;;;;;;;7.00;5.80;;;;;;;20.79;80.77;96464.76;127883;1093;22932;-91
2021/07/18 02:15:17;;;;;;;7.78;5.95;;;;;;;20.80;79.06;96467.10;127855;1093;25903;-91
2021/07/18 02:17:49;;;;;;;7.35;6.05;;;;;;;20.78;78.08;96463.19;127927;1093;28459;-90
2021/07/18 02:20:23;;;;;;;9.03;5.95;;;;;;;20.74;78.76;96455.81;127934;1093;26489;-91
2021/07/18 02:22:56;;;;;;;7.08;5.45;;;;;;;20.67;78.23;96457.53;127867;1093;23739;-90
2021/07/18 02:25:29;;;;;;;6.33;4.80;;;;;;;20.69;76.00;96450.70;127851;1093;22820;-93
2021/07/18 02:28:00;;;;;;;6.68;4.70;;;;;;;20.75;75.41;96454.69;127854;1093;22820;-94
2021/07/18 02:30:32;;;;;;;8.90;6.00;;;;;;;20.74;76.87;96461.20;127839;1093;23209;-93
2021/07/18 02:33:04;;;;;;;7.53;5.55;;;;;;;20.72;77.36;96460.77;127885;1093;22795;-94
2021/07/18 02:35:35;;;;;;;7.98;5.73;;;;;;;20.65;77.48;96459.80;127840;1093;26315;-90
2021/07/18 02:38:06;;;;;;;7.58;5.70;;;;;;;20.62;77.97;96469.36;127846;1093;22864;-96
2021/07/18 02:40:38;;;;;;;9.23;5.58;;;;;;;20.56;78.14;96476.14;127847;1093;32941;-91
2021/07/18 02:43:09;;;;;;;6.83;5.53;;;;;;;20.47;78.12;96478.20;127708;1092;23256;-91
2021/07/18 02:45:40;;;;;;;6.80;5.25;;;;;;;20.40;78.18;96475.28;127863;1093;22822;-89
2021/07/18 02:48:12;;;;;;;7.03;5.38;;;;;;;20.32;78.56;96478.92;127880;1092;24553;-93
2021/07/18 02:50:43;;;;;;;7.20;5.00;;;;;;;20.33;78.66;96477.80;127845;1093;22810;-94
2021/07/18 02:53:15;;;;;;;6.73;5.60;;;;;;;20.33;78.53;96464.33;127852;1093;23346;-91
2021/07/18 02:55:46;;;;;;;9.35;6.08;;;;;;;20.37;78.74;96471.37;127946;1093;26495;-90
2021/07/18 02:58:17;;;;;;;7.58;6.30;;;;;;;20.39;78.70;96469.11;127959;1093;22829;-90
2021/07/18 03:00:49;;;;;;;7.78;5.85;;;;;;;20.37;78.15;96463.29;127691;1093;22787;-90
2021/07/18 03:03:20;;;;;;;7.18;5.28;;;;;;;20.33;78.18;96477.80;127916;1093;23615;-91
2021/07/18 03:05:52;;;;;;;9.48;5.75;;;;;;;20.27;79.01;96481.84;127878;1093;22829;-90
2021/07/18 03:08:23;;;;;;;5.93;5.05;;;;;;;20.18;79.31;96473.16;127848;1093;23647;-90
2021/07/18 03:10:55;;;;;;;6.98;5.60;;;;;;;20.14;79.63;96451.53;127893;1093;23548;-90
2021/07/18 03:13:26;;;;;;;7.90;5.80;;;;;;;20.15;79.34;96458.48;127857;1093;23467;-91
2021/07/18 03:15:57;;;;;;;7.75;5.28;;;;;;;20.18;79.37;96465.86;127861;1093;31806;-91
2021/07/18 03:18:29;;;;;;;9.58;6.00;;;;;;;20.21;79.57;96461.69;127848;1093;24554;-93
2021/07/18 03:21:00;;;;;;;9.07;5.47;;;;;;;20.24;79.70;96450.23;127828;1093;23626;-92
2021/07/18 03:23:31;;;;;;;7.63;5.83;;;;;;;20.26;79.64;96448.75;127831;1093;22789;-90
2021/07/18 03:26:02;;;;;;;6.73;5.55;;;;;;;20.26;79.42;96453.36;127842;1093;22954;-94
2021/07/18 03:28:34;;;;;;;8.28;6.03;;;;;;;20.24;79.41;96452.92;127832;1093;22823;-90
2021/07/18 03:31:05;;;;;;;8.15;5.78;;;;;;;20.32;79.78;96444.70;127814;1093;23064;-91
2021/07/18 03:33:36;;;;;;;7.93;5.50;;;;;;;20.43;79.28;96447.71;127674;1092;22802;-92
2021/07/18 03:36:08;;;;;;;8.80;5.85;;;;;;;20.52;78.95;96452.92;127876;1093;26528;-93
2021/07/18 03:38:39;;;;;;;6.18;5.33;;;;;;;20.52;78.95;96448.31;127851;1092;22826;-90
2021/07/18 03:41:10;;;;;;;8.35;5.70;;;;;;;20.45;79.67;96442.76;127832;1092;22863;-91
2021/07/18 03:43:42;;;;;;;8.88;5.60;;;;;;;20.36;79.79;96434.80;127868;1093;23491;-91
2021/07/18 03:46:13;;;;;;;10.00;6.00;;;;;;;20.44;79.80;96441.20;127901;1093;22833;-90
2021/07/18 03:48:45;;;;;;;8.58;5.65;;;;;;;20.60;79.85;96446.59;127839;1093;22793;-90
2021/07/18 03:51:17;;;;;;;7.25;5.58;;;;;;;20.68;79.74;96427.55;127849;1093;22830;-94
2021/07/18 03:53:48;;;;;;;7.43;5.77;;;;;;;20.72;79.67;96425.75;127939;1093;23321;-91
2021/07/18 03:56:22;;;;;;;8.15;6.35;;;;;;;20.73;79.57;96431.91;127889;1093;24241;-92
2021/07/18 03:58:54;;;;;;;8.68;5.93;;;;;;;20.82;79.58;96437.11;127851;1093;23187;-91
2021/07/18 04:01:25;;;;;;;9.23;5.47;;;;;;;20.92;79.69;96431.20;127861;1093;22799;-90
2021/07/18 04:03:57;;;;;;;7.55;6.28;;;;;;;20.87;79.07;96431.48;127886;1093;22799;-90
2021/07/18 04:06:28;;;;;;;9.03;6.15;;;;;;;20.83;79.33;96444.06;127869;1093;26043;-90
2021/07/18 04:09:00;;;;;;;8.88;6.05;;;;;;;20.88;79.79;96441.91;127839;1092;27972;-89
2021/07/18 04:11:31;;;;;;;8.20;6.38;;;;;;;21.07;79.90;96445.80;127836;1093;33463;-91
2021/07/18 04:14:02;;;;;;;8.33;6.48;;;;;;;21.26;79.91;96451.30;127846;1093;22884;-91
2021/07/18 04:16:34;;;;;;;8.70;6.70;;;;;;;21.45;79.76;96439.77;127845;1093;26728;-96
2021/07/18 04:19:05;;;;;;;9.03;6.55;;;;;;;21.53;78.99;96442.24;127850;1093;25275;-92
2021/07/18 04:21:36;;;;;;;8.40;6.23;;;;;;;21.50;78.55;96442.95;127835;1093;22802;-90
2021/07/18 04:24:08;;;;;;;8.15;6.93;;;;;;;21.40;78.38;96440.83;127866;1092;26351;-90
2021/07/18 04:26:39;;;;;;;9.63;6.90;;;;;;;21.33;78.68;96436.05;127832;1093;22852;-90
2021/07/18 04:29:10;;;;;;;9.68;7.33;;;;;;;21.27;78.92;96437.46;127847;1093;24686;-90
2021/07/18 04:31:42;;;;;;;7.53;6.23;;;;;;;21.29;79.34;96447.89;127855;1092;24557;-90
2021/07/18 04:34:13;;;;;;;7.85;6.63;;;;;;;21.20;79.27;96448.04;127905;1093;25476;-91
2021/07/18 04:36:44;;;;;;;7.90;6.60;;;;;;;21.33;80.29;96457.61;127842;1093;24184;-90
2021/07/18 04:39:16;;;;;;;7.33;5.98;;;;;;;21.51;80.12;96466.09;127826;1093;27553;-92
2021/07/18 04:41:47;;;;;;;8.80;7.80;;;;;;;21.58;80.22;96460.87;127877;1093;25597;-90
2021/07/18 04:44:18;;;;;;;10.90;8.40;;;;;;;21.60;79.87;96463.99;127891;1093;26932;-92
2021/07/18 04:46:54;;;;;;;14.50;11.63;;;;;;;21.54;80.13;96462.72;127908;1093;26319;-91
2021/07/18 04:49:27;;;;;;;13.80;12.15;;;;;;;21.47;80.54;96473.33;127666;1093;24058;-91
2021/07/18 04:51:59;;;;;;;15.75;12.60;;;;;;;21.40;80.50;96481.28;127875;1093;29846;-91
2021/07/18 04:54:30;;;;;;;13.75;11.53;;;;;;;21.31;80.55;96481.45;127852;1093;24082;-91
2021/07/18 04:57:02;;;;;;;11.95;10.70;;;;;;;21.28;80.57;96479.47;127832;1093;24917;-95
2021/07/18 04:59:33;;;;;;;14.10;11.13;;;;;;;21.26;80.83;96489.05;127874;1093;25900;-89
2021/07/18 05:02:05;;;;;;;9.68;8.20;;;;;;;21.18;80.01;96485.36;127879;1093;28088;-90
2021/07/18 05:04:36;;;;;;;11.43;7.90;;;;;;;21.04;80.00;96491.19;127868;1093;24609;-91
2021/07/18 05:07:09;;;;;;;8.40;7.33;;;;;;;20.95;80.02;96493.27;127798;1092;26850;-93
2021/07/18 05:09:41;;;;;;;9.10;6.90;;;;;;;20.88;79.15;96489.63;127813;1093;24479;-90
2021/07/18 05:12:13;;;;;;;8.38;6.23;;;;;;;20.83;79.40;96489.88;127876;1093;25383;-91
2021/07/18 05:14:45;;;;;;;7.83;6.20;;;;;;;20.77;79.29;96488.58;127892;1093;22770;-91
2021/07/18 05:17:17;;;;;;;8.35;6.68;;;;;;;20.82;79.61;96491.00;127968;1093;28234;-93
2021/07/18 05:19:48;;;;;;;8.05;6.33;;;;;;;20.82;79.60;96501.78;127881;1093;23689;-92
2021/07/18 05:22:21;;;;;;;9.43;6.88;;;;;;;20.80;79.52;96498.66;127900;1093;22890;-96
2021/07/18 05:24:53;;;;;;;10.08;6.43;;;;;;;20.81;79.73;96498.30;127791;1093;24441;-90
2021/07/18 05:27:25;;;;;;;10.83;6.73;;;;;;;20.79;79.86;96510.56;127837;1093;23873;-92
2021/07/18 05:29:56;;;;;;;9.08;6.88;;;;;;;20.80;80.39;96507.52;127862;1092;25328;-90
2021/07/18 05:32:27;;;;;;;9.70;7.10;;;;;;;20.82;80.08;96501.78;127863;1093;24567;-90
2021/07/18 05:34:59;;;;;;;8.10;6.33;;;;;;;20.84;80.08;96511.11;127844;1092;25766;-90
2021/07/18 05:37:30;;;;;;;10.63;8.00;;;;;;;20.86;80.29;96508.84;127811;1093;26277;-91
2021/07/18 05:40:01;;;;;;;9.95;7.35;;;;;;;20.89;80.51;96510.06;127858;1093;22790;-91
2021/07/18 05:42:33;;;;;;;9.63;7.85;;;;;;;20.85;80.75;96509.98;127822;1093;22839;-90
2021/07/18 05:45:05;;;;;;;9.30;7.25;;;;;;;20.84;80.93;96518.41;127834;1093;24806;-90
2021/07/18 05:47:37;;;;;;;9.95;7.50;;;;;;;20.88;81.53;96505.80;127820;1093;22770;-94
2021/07/18 05:50:11;;;;;;;10.78;8.40;;;;;;;20.92;80.99;96506.66;127840;1093;25906;-91
2021/07/18 05:52:42;;;;;;;11.40;8.23;;;;;;;20.96;81.04;96505.61;127890;1093;26504;-90
2021/07/18 05:55:15;;;;;;;11.10;8.50;;;;;;;20.98;81.20;96513.38;127817;1093;26274;-90
2021/07/18 05:57:46;;;;;;;13.13;9.13;;;;;;;21.01;81.67;96509.98;127885;1093;23580;-90
2021/07/18 06:00:18;;;;;;;10.35;8.38;;;;;;;21.02;81.32;96511.54;127849;1093;24238;-91
2021/07/18 06:02:50;;;;;;;8.70;7.50;;;;;;;20.93;81.18;96509.00;127923;1093;22799;-91
2021/07/18 06:05:21;;;;;;;10.28;7.65;;;;;;;20.90;81.40;96517.79;127941;1093;26265;-93
2021/07/18 06:07:52;;;;;;;7.90;6.75;;;;;;;20.90;81.24;96525.09;127851;1093;23857;-90
2021/07/18 06:10:23;;;;;;;8.93;6.90;;;;;;;21.02;81.99;96516.93;127861;1093;26401;-89
2021/07/18 06:12:55;;;;;;;9.43;7.00;;;;;;;21.29;81.39;96515.30;127857;1093;22852;-90
2021/07/18 06:15:27;;;;;;;12.05;8.35;;;;;;;21.32;81.01;96509.98;127846;1093;22957;-89
2021/07/18 06:17:58;;;;;;;10.48;8.73;;;;;;;21.28;81.24;96519.91;127536;1093;37776;-93
2021/07/18 06:20:29;;;;;;;10.85;8.65;;;;;;;21.24;81.23;96515.52;127681;1093;22825;-93
2021/07/18 06:23:01;;;;;;;11.38;7.83;;;;;;;21.24;81.81;96520.91;127804;1093;24584;-90
2021/07/18 06:25:32;;;;;;;10.63;8.63;;;;;;;21.32;81.74;96512.69;127829;1093;23742;-91
2021/07/18 06:28:03;;;;;;;10.30;8.68;;;;;;;21.53;81.81;96514.30;127889;1093;26281;-94
2021/07/18 06:30:35;;;;;;;11.68;9.33;;;;;;;22.02;82.26;96516.52;127822;1092;25197;-90
2021/07/18 06:33:07;;;;;;;10.83;8.55;;;;;;;22.93;82.21;96511.35;127840;1093;22799;-90
2021/07/18 06:35:38;;;;;;;10.15;8.08;;;;;;;25.10;81.32;96513.45;127885;1093;23106;-90
2021/07/18 06:38:09;;;;;;;8.85;7.78;;;;;;;26.65;75.01;96503.09;127880;1093;24162;-91
2021/07/18 06:40:41;;;;;;;10.10;8.45;;;;;;;26.28;71.74;96506.83;127873;1093;29645;-90
2021/07/18 06:43:12;;;;;;;10.90;8.23;;;;;;;25.29;70.89;96515.92;127855;1093;23576;-92
2021/07/18 06:45:44;;;;;;;9.78;8.50;;;;;;;24.60;71.85;96517.58;127858;1093;26446;-91
2021/07/18 06:48:17;;;;;;;11.43;9.18;;;;;;;24.20;72.55;96519.81;127919;1093;24798;-90
2021/07/18 06:50:49;;;;;;;12.30;10.10;;;;;;;23.79;72.92;96518.11;127891;1093;25728;-92
2021/07/18 06:53:21;;;;;;;11.10;8.65;;;;;;;23.46;73.83;96514.14;127932;1093;23003;-94
2021/07/18 06:55:53;;;;;;;10.45;8.75;;;;;;;23.27;74.56;96517.72;127884;1093;22807;-87
2021/07/18 06:58:24;;;;;;;14.03;10.13;;;;;;;23.20;74.97;96523.00;127841;1093;25482;-90
2021/07/18 07:00:55;;;;;;;12.55;9.83;;;;;;;23.08;74.96;96515.08;127884;1093;25916;-92
2021/07/18 07:03:26;;;;;;;15.15;9.98;;;;;;;22.98;75.65;96519.18;127828;1093;22799;-90
2021/07/18 07:05:58;;;;;;;12.73;9.50;;;;;;;22.90;75.84;96527.52;127872;1091;22799;-91
2021/07/18 07:08:29;;;;;;;18.35;13.53;;;;;;;22.79;76.80;96533.48;127878;1093;22942;-94
2021/07/18 07:11:01;;;;;;;14.63;12.23;;;;;;;22.68;77.63;96545.26;127870;1093;22826;-90
2021/07/18 07:13:32;;;;;;;16.93;14.38;;;;;;;22.69;77.56;96547.60;127895;1093;22799;-89
2021/07/18 07:16:04;;;;;;;18.15;15.30;;;;;;;22.66;77.51;96542.92;127839;1093;26281;-93
2021/07/18 07:18:35;;;;;;;18.43;15.13;;;;;;;22.70;78.08;96545.67;127814;1093;22802;-90
2021/07/18 07:21:07;;;;;;;19.43;14.70;;;;;;;22.71;77.89;96545.31;127850;1092;22847;-88
2021/07/18 07:23:38;;;;;;;19.23;12.85;;;;;;;22.75;78.61;96548.08;127856;1093;22877;-91
2021/07/18 07:26:10;;;;;;;17.80;15.00;;;;;;;22.80;78.24;96542.37;127885;1092;27901;-91
2021/07/18 07:28:42;;;;;;;17.03;15.03;;;;;;;22.76;77.88;96536.13;127811;1093;27869;-91
2021/07/18 07:31:13;;;;;;;21.25;17.30;;;;;;;22.65;78.57;96540.55;127866;1092;23859;-91
2021/07/18 07:33:45;;;;;;;21.50;16.70;;;;;;;22.53;79.21;96538.81;127850;1093;23303;-94
2021/07/18 07:36:18;;;;;;;22.03;17.80;;;;;;;22.41;79.14;96539.73;127815;1093;49959;-91
2021/07/18 07:38:49;;;;;;;22.93;17.73;;;;;;;22.32;79.27;96544.56;127919;1093;23018;-91
2021/07/18 07:41:21;;;;;;;22.30;17.37;;;;;;;22.26;79.68;96543.29;127940;1093;22799;-90
2021/07/18 07:43:56;;;;;;;21.57;17.17;;;;;;;22.25;80.35;96551.75;127841;1093;26963;-88
2021/07/18 07:46:37;;;;;;;25.45;18.75;;;;;;;22.26;80.45;96545.21;127870;1093;23899;-91
2021/07/18 07:49:08;;;;;;;22.03;17.38;;;;;;;22.29;80.92;96545.27;127846;1093;24979;-91
2021/07/18 07:51:40;;;;;;;23.23;18.83;;;;;;;22.22;80.77;96545.12;127823;1093;23745;-91
2021/07/18 07:54:11;;;;;;;22.38;16.38;;;;;;;22.25;81.51;96539.03;127857;1093;24210;-94
2021/07/18 07:56:43;;;;;;;18.98;16.93;;;;;;;22.38;81.45;96526.95;127836;1092;22961;-91
2021/07/18 07:59:15;;;;;;;24.07;17.40;;;;;;;22.47;81.27;96527.48;127884;1093;22832;-95
2021/07/18 08:01:47;;;;;;;19.50;16.60;;;;;;;22.65;81.80;96535.14;127848;1093;24720;-90
2021/07/18 08:04:18;;;;;;;24.35;18.73;;;;;;;22.79;81.25;96543.52;127899;1093;22832;-90
2021/07/18 08:06:50;;;;;;;27.25;21.50;;;;;;;22.63;80.49;96542.83;127833;1093;22798;-91
2021/07/18 08:09:21;;;;;;;24.05;19.08;;;;;;;22.46;80.90;96544.06;127880;1092;23078;-91
2021/07/18 08:11:54;;;;;;;25.33;20.95;;;;;;;22.43;81.39;96556.36;127849;1093;22799;-91
2021/07/18 08:14:26;;;;;;;27.20;21.20;;;;;;;22.32;81.22;96566.16;127865;1093;26794;-91
2021/07/18 08:16:57;;;;;;;26.13;21.13;;;;;;;22.17;81.71;96561.61;127889;1093;22833;-91
2021/07/18 08:19:29;;;;;;;29.63;20.95;;;;;;;22.11;82.01;96568.44;127860;1093;22802;-90
2021/07/18 08:22:00;;;;;;;29.10;23.40;;;;;;;22.00;82.58;96559.30;127865;1093;23676;-92
2021/07/18 08:24:31;;;;;;;28.88;22.93;;;;;;;21.88;82.64;96555.58;127768;1093;27841;-90
2021/07/18 08:27:04;;;;;;;27.35;22.85;;;;;;;21.82;82.98;96562.39;127831;1093;25136;-92
2021/07/18 08:29:35;;;;;;;31.40;24.25;;;;;;;21.78;83.29;96560.73;127877;1093;22826;-94
2021/07/18 08:32:08;;;;;;;30.90;24.40;;;;;;;21.66;83.45;96561.61;127860;1093;23439;-96
2021/07/18 08:34:39;;;;;;;31.73;24.73;;;;;;;21.57;83.77;96561.82;127856;1093;24401;-92
2021/07/18 08:37:11;;;;;;;33.80;26.05;;;;;;;21.50;84.22;96577.05;127868;1093;23250;-91
2021/07/18 08:39:42;;;;;;;34.25;25.28;;;;;;;21.39;84.61;96576.78;127863;1093;23444;-93
2021/07/18 08:42:16;;;;;;;32.95;24.38;;;;;;;21.33;84.77;96578.97;127837;1093;23313;-93
2021/07/18 08:44:48;;;;;;;30.43;22.95;;;;;;;21.31;85.10;96573.14;127856;1093;23094;-91
2021/07/18 08:47:20;;;;;;;28.20;23.33;;;;;;;21.35;85.23;96581.31;127948;1093;22982;-91
2021/07/18 08:49:51;;;;;;;31.08;21.95;;;;;;;21.36;85.43;96565.91;127897;1093;26644;-90
2021/07/18 08:52:24;;;;;;;27.75;22.48;;;;;;;21.38;85.79;96567.13;127850;1093;22799;-89
2021/07/18 08:54:56;;;;;;;26.73;21.23;;;;;;;21.42;86.13;96559.92;127856;1092;25940;-90
2021/07/18 08:57:28;;;;;;;24.58;19.73;;;;;;;21.44;86.62;96557.66;127845;1093;24440;-93
2021/07/18 08:59:59;;;;;;;23.93;19.18;;;;;;;21.46;86.69;96551.91;127862;1092;26328;-92
2021/07/18 09:02:31;;;;;;;22.43;18.28;;;;;;;21.49;86.80;96556.59;127823;1092;25115;-94
2021/07/18 09:05:02;;;;;;;22.35;17.73;;;;;;;21.53;86.86;96562.84;127855;1093;25643;-91
2021/07/18 09:07:42;;;;;;;20.63;17.08;;;;;;;21.58;86.49;96560.69;127870;1093;24530;-91
2021/07/18 09:10:16;;;;;;;21.48;18.10;;;;;;;21.63;86.58;96565.02;127831;1092;24072;-92
2021/07/18 09:13:04;;;;;;;21.75;17.35;;;;;;;21.71;86.08;96565.98;127892;1093;22964;-95
2021/07/18 09:15:47;;;;;;;21.83;16.60;;;;;;;21.77;86.43;96561.86;127886;1093;23648;-91
2021/07/18 09:18:21;;;;;;;22.13;16.88;;;;;;;21.78;86.29;96564.20;127922;1093;25035;-90
2021/07/18 09:20:54;;;;;;;21.45;17.65;;;;;;;21.75;86.12;96567.62;127906;1093;22826;-86
2021/07/18 09:23:28;;;;;;;21.98;18.15;;;;;;;21.73;86.50;96563.70;127822;1093;24112;-89
2021/07/18 09:26:22;;;;;;;24.90;18.80;;;;;;;21.59;86.76;96574.95;127850;1093;26322;-92
2021/07/18 09:28:58;;;;;;;22.68;17.40;;;;;;;21.48;86.81;96580.09;127883;1093;28345;-91
2021/07/18 09:31:35;;;;;;;21.95;17.53;;;;;;;21.50;86.94;96579.74;127866;1093;24161;-91
2021/07/18 09:34:20;;;;;;;23.25;20.25;;;;;;;21.53;87.41;96592.52;127878;1093;24010;-92
2021/07/18 09:36:51;;;;;;;22.90;18.45;;;;;;;21.51;87.54;96595.58;127911;1093;25434;-90
2021/07/18 09:39:23;;;;;;;25.48;19.63;;;;;;;21.43;87.94;96595.77;127869;1093;22892;-90
2021/07/18 09:41:57;;;;;;;26.70;21.25;;;;;;;21.31;88.20;96594.72;127838;1093;26695;-91
2021/07/18 09:44:40;;;;;;;25.08;19.43;;;;;;;21.28;87.90;96594.64;127848;1092;25463;-90
2021/07/18 09:47:15;;;;;;;22.73;18.68;;;;;;;21.25;87.90;96590.70;127858;1092;23774;-90
2021/07/18 09:49:48;;;;;;;24.23;20.28;;;;;;;21.19;87.88;96583.98;127855;1093;23509;-95
2021/07/18 09:52:22;;;;;;;23.90;17.30;;;;;;;21.20;88.35;96592.84;127938;1092;22807;-93
2021/07/18 09:54:55;;;;;;;20.00;16.10;;;;;;;21.27;88.52;96601.94;127846;1093;22826;-91
2021/07/18 09:57:41;;;;;;;21.98;16.40;;;;;;;21.35;89.29;96597.49;127874;1093;22851;-90
2021/07/18 10:00:14;;;;;;;25.18;17.73;;;;;;;21.44;89.60;96589.23;127853;1092;22698;-90
2021/07/18 10:02:46;;;;;;;27.40;18.40;;;;;;;21.45;89.56;96593.50;127866;1093;24613;-90
2021/07/18 10:05:29;;;;;;;19.80;16.40;;;;;;;21.47;90.07;96583.14;127937;1093;22832;-94
2021/07/18 10:08:09;;;;;;;20.80;14.03;;;;;;;21.54;89.91;96580.63;127870;1092;23720;-91
2021/07/18 10:10:42;;;;;;;18.73;15.43;;;;;;;21.64;89.90;96570.06;127870;1093;24493;-91
2021/07/18 10:13:14;;;;;;;17.65;14.05;;;;;;;21.74;89.71;96563.36;127828;1093;22861;-90
2021/07/18 10:15:45;;;;;;;16.10;12.53;;;;;;;21.80;89.42;96559.23;127864;1093;26712;-90
2021/07/18 10:18:17;;;;;;;16.25;13.18;;;;;;;21.85;88.91;96558.20;127892;1093;25909;-91
2021/07/18 10:20:49;;;;;;;16.03;13.18;;;;;;;21.85;89.20;96564.38;127953;1093;23720;-90
2021/07/18 10:23:22;;;;;;;14.43;11.65;;;;;;;21.86;89.07;96573.26;127906;1093;22853;-91
2021/07/18 10:25:55;;;;;;;17.20;13.08;;;;;;;21.79;88.97;96568.47;127908;1093;26682;-90
2021/07/18 10:28:28;;;;;;;19.03;13.83;;;;;;;21.78;89.40;96569.61;127841;1093;22887;-89
2021/07/18 10:31:04;;;;;;;16.65;13.98;;;;;;;21.77;88.72;96570.74;127840;1093;24927;-90
2021/07/18 10:33:37;;;;;;;19.20;14.45;;;;;;;21.75;89.53;96567.62;127893;1093;22793;-90
2021/07/18 10:36:10;;;;;;;18.38;14.83;;;;;;;21.73;89.59;96572.59;127859;1092;25814;-91
2021/07/18 10:38:42;;;;;;;18.45;14.48;;;;;;;21.70;89.69;96578.69;127865;1092;27323;-90
2021/07/18 10:41:15;;;;;;;17.70;14.08;;;;;;;21.67;90.41;96570.49;127887;1093;24456;-91
2021/07/18 10:43:51;;;;;;;18.08;14.90;;;;;;;21.61;90.57;96569.98;127886;1092;24090;-92
2021/07/18 10:46:55;;;;;;;19.20;15.68;;;;;;;21.68;91.20;96574.75;127929;1092;23585;-90
2021/07/18 10:50:05;;;;;;;22.58;16.40;;;;;;;21.77;91.07;96562.64;127652;1092;22797;-89
2021/07/18 10:52:37;;;;;;;19.95;15.68;;;;;;;21.84;90.64;96570.91;127850;1093;27508;-91
2021/07/18 10:55:23;;;;;;;20.80;15.50;;;;;;;21.86;90.89;96573.26;127570;1093;24555;-90
2021/07/18 10:57:55;;;;;;;17.90;13.38;;;;;;;21.92;90.81;96564.52;127891;1093;27961;-90
2021/07/18 11:00:31;;;;;;;19.15;13.58;;;;;;;21.93;90.48;96566.09;127848;1093;22796;-89
2021/07/18 11:03:08;;;;;;;17.23;13.75;;;;;;;21.89;90.49;96567.16;127837;1093;23021;-93
2021/07/18 11:05:45;;;;;;;16.85;14.43;;;;;;;21.86;90.10;96559.77;127864;1093;23402;-96
2021/07/18 11:08:17;;;;;;;18.58;13.78;;;;;;;21.80;91.11;96556.54;127913;1093;22796;-91
2021/07/18 11:10:56;;;;;;;16.15;14.08;;;;;;;21.80;90.79;96556.54;127916;1093;22845;-93
2021/07/18 11:13:28;;;;;;;17.45;14.53;;;;;;;21.81;90.66;96566.20;127839;1093;23476;-92
2021/07/18 11:16:00;;;;;;;18.23;14.33;;;;;;;21.89;91.63;96567.94;127729;1093;22796;-91
2021/07/18 11:18:38;;;;;;;16.93;14.38;;;;;;;21.97;91.39;96570.80;127849;1093;22823;-92
2021/07/18 11:21:10;;;;;;;18.03;14.83;;;;;;;21.99;90.95;96565.83;127851;1093;22841;-94
2021/07/18 11:23:46;;;;;;;18.13;14.53;;;;;;;22.01;91.22;96571.66;127895;1092;26443;-92
2021/07/18 11:26:19;;;;;;;18.70;15.03;;;;;;;22.00;91.02;96576.27;127877;1093;22792;-93
2021/07/18 11:29:03;;;;;;;18.53;14.90;;;;;;;22.00;91.53;96575.49;127911;1093;22792;-89
2021/07/18 11:31:51;;;;;;;21.13;15.27;;;;;;;22.08;91.48;96579.92;127849;1093;22855;-91
2021/07/18 11:34:25;;;;;;;18.30;14.70;;;;;;;22.19;91.21;96570.14;127858;1093;22881;-87
2021/07/18 11:37:05;;;;;;;15.95;13.93;;;;;;;22.36;92.01;96561.61;127888;1093;22951;-89
2021/07/18 11:39:37;;;;;;;19.58;13.75;;;;;;;22.64;91.05;96561.38;127856;1093;22803;-91
2021/07/18 11:42:11;;;;;;;17.35;13.88;;;;;;;22.92;90.46;96560.38;127828;1093;22805;-93